sensor_id;sensor_type;location;lat;lon;timestamp;P1;durP1;ratioP1;P2;durP2;ratioP2
50605;SDS011;36557;53.572;10.170;2024-03-17T01:25:13;6.68;;;0.82;;
50605;SDS011;36557;53.572;10.170;2024-03-17T01:27:40;10.63;;;1.50;;
50605;SDS011;36557;53.572;10.170;2024-03-17T01:30:08;9.65;;;1.55;;
50605;SDS011;36557;53.572;10.170;2024-03-17T01:32:34;11.05;;;1.65;;
50605;SDS011;36557;53.572;10.170;2024-03-17T01:35:00;6.63;;;1.50;;
50605;SDS011;36557;53.572;10.170;2024-03-17T01:37:26;6.97;;;1.48;;
50605;SDS011;36557;53.572;10.170;2024-03-17T01:39:56;12.90;;;1.90;;
50605;SDS011;36557;53.572;10.170;2024-03-17T01:42:22;9.40;;;1.10;;
50605;SDS011;36557;53.572;10.170;2024-03-17T01:44:49;9.75;;;1.30;;
50605;SDS011;36557;53.572;10.170;2024-03-17T01:47:18;5.38;;;0.90;;
50605;SDS011;36557;53.572;10.170;2024-03-17T01:49:47;15.73;;;2.55;;
50605;SDS011;36557;53.572;10.170;2024-03-17T01:52:15;13.35;;;1.80;;
50605;SDS011;36557;53.572;10.170;2024-03-17T01:54:42;9.70;;;1.33;;
50605;SDS011;36557;53.572;10.170;2024-03-17T01:57:08;8.95;;;1.48;;
50605;SDS011;36557;53.572;10.170;2024-03-17T01:59:35;9.50;;;1.45;;
50605;SDS011;36557;53.572;10.170;2024-03-17T02:02:01;9.70;;;1.23;;
50605;SDS011;36557;53.572;10.170;2024-03-17T02:04:28;8.52;;;1.23;;
50605;SDS011;36557;53.572;10.170;2024-03-17T02:06:54;5.45;;;1.33;;
50605;SDS011;36557;53.572;10.170;2024-03-17T02:09:20;8.13;;;1.20;;
50605;SDS011;36557;53.572;10.170;2024-03-17T02:11:47;11.10;;;2.05;;
50605;SDS011;36557;53.572;10.170;2024-03-17T02:14:13;7.07;;;2.40;;
50605;SDS011;36557;53.572;10.170;2024-03-17T02:16:42;7.55;;;1.10;;
50605;SDS011;36557;53.572;10.170;2024-03-17T02:19:08;5.82;;;1.08;;
50605;SDS011;36557;53.572;10.170;2024-03-17T02:21:35;6.80;;;1.90;;
50605;SDS011;36557;53.572;10.170;2024-03-17T02:24:02;10.40;;;1.10;;
50605;SDS011;36557;53.572;10.170;2024-03-17T02:26:28;5.95;;;1.55;;
50605;SDS011;36557;53.572;10.170;2024-03-17T02:28:54;8.25;;;1.40;;
50605;SDS011;36557;53.572;10.170;2024-03-17T02:31:20;5.53;;;1.95;;
50605;SDS011;36557;53.572;10.170;2024-03-17T02:33:47;11.63;;;1.35;;
50605;SDS011;36557;53.572;10.170;2024-03-17T02:36:13;5.50;;;0.88;;
50605;SDS011;36557;53.572;10.170;2024-03-17T02:38:40;11.80;;;1.88;;
50605;SDS011;36557;53.572;10.170;2024-03-17T02:41:26;6.65;;;1.10;;
50605;SDS011;36557;53.572;10.170;2024-03-17T02:43:53;4.20;;;1.08;;
50605;SDS011;36557;53.572;10.170;2024-03-17T02:46:19;11.38;;;1.50;;
50605;SDS011;36557;53.572;10.170;2024-03-17T02:48:47;6.70;;;1.08;;
50605;SDS011;36557;53.572;10.170;2024-03-17T02:51:13;8.88;;;1.15;;
50605;SDS011;36557;53.572;10.170;2024-03-17T02:53:43;9.60;;;2.35;;
50605;SDS011;36557;53.572;10.170;2024-03-17T02:56:10;9.38;;;1.25;;
50605;SDS011;36557;53.572;10.170;2024-03-17T02:58:36;14.23;;;1.50;;
50605;SDS011;36557;53.572;10.170;2024-03-17T03:01:06;7.97;;;1.05;;
50605;SDS011;36557;53.572;10.170;2024-03-17T03:03:32;5.68;;;1.58;;
50605;SDS011;36557;53.572;10.170;2024-03-17T03:05:58;9.20;;;1.17;;
50605;SDS011;36557;53.572;10.170;2024-03-17T03:08:30;5.20;;;0.82;;
50605;SDS011;36557;53.572;10.170;2024-03-17T03:10:56;7.90;;;1.50;;
50605;SDS011;36557;53.572;10.170;2024-03-17T03:13:22;9.95;;;1.10;;
50605;SDS011;36557;53.572;10.170;2024-03-17T03:15:48;8.30;;;1.27;;
50605;SDS011;36557;53.572;10.170;2024-03-17T03:18:14;6.95;;;1.13;;
50605;SDS011;36557;53.572;10.170;2024-03-17T03:20:41;4.60;;;1.05;;
50605;SDS011;36557;53.572;10.170;2024-03-17T03:23:07;6.53;;;1.20;;
50605;SDS011;36557;53.572;10.170;2024-03-17T03:25:33;8.43;;;1.30;;
50605;SDS011;36557;53.572;10.170;2024-03-17T03:27:59;3.70;;;0.85;;
50605;SDS011;36557;53.572;10.170;2024-03-17T03:30:26;12.75;;;1.58;;
50605;SDS011;36557;53.572;10.170;2024-03-17T03:32:53;5.13;;;1.25;;
50605;SDS011;36557;53.572;10.170;2024-03-17T03:35:19;5.72;;;0.85;;
50605;SDS011;36557;53.572;10.170;2024-03-17T03:37:46;4.20;;;1.02;;
50605;SDS011;36557;53.572;10.170;2024-03-17T03:40:12;5.53;;;1.35;;
50605;SDS011;36557;53.572;10.170;2024-03-17T03:42:44;4.10;;;0.77;;
50605;SDS011;36557;53.572;10.170;2024-03-17T03:45:11;7.60;;;1.65;;
50605;SDS011;36557;53.572;10.170;2024-03-17T03:47:38;7.70;;;1.27;;
50605;SDS011;36557;53.572;10.170;2024-03-17T03:50:08;7.90;;;2.15;;
50605;SDS011;36557;53.572;10.170;2024-03-17T03:52:35;6.97;;;1.15;;
50605;SDS011;36557;53.572;10.170;2024-03-17T03:55:01;10.60;;;1.23;;
50605;SDS011;36557;53.572;10.170;2024-03-17T03:57:29;5.97;;;1.23;;
50605;SDS011;36557;53.572;10.170;2024-03-17T03:59:55;9.75;;;2.75;;
50605;SDS011;36557;53.572;10.170;2024-03-17T04:02:21;8.52;;;1.40;;
50605;SDS011;36557;53.572;10.170;2024-03-17T04:04:48;9.90;;;1.70;;
50605;SDS011;36557;53.572;10.170;2024-03-17T04:07:14;7.15;;;1.08;;
50605;SDS011;36557;53.572;10.170;2024-03-17T04:09:40;2.63;;;0.90;;
50605;SDS011;36557;53.572;10.170;2024-03-17T04:12:06;3.95;;;1.20;;
50605;SDS011;36557;53.572;10.170;2024-03-17T04:14:32;4.40;;;1.15;;
50605;SDS011;36557;53.572;10.170;2024-03-17T04:16:58;8.80;;;1.50;;
50605;SDS011;36557;53.572;10.170;2024-03-17T04:19:24;38.78;;;19.48;;
50605;SDS011;36557;53.572;10.170;2024-03-17T04:21:51;1.95;;;0.65;;
50605;SDS011;36557;53.572;10.170;2024-03-17T04:24:17;7.40;;;0.88;;
50605;SDS011;36557;53.572;10.170;2024-03-17T04:26:43;2.65;;;0.70;;
50605;SDS011;36557;53.572;10.170;2024-03-17T04:29:09;6.03;;;1.30;;
50605;SDS011;36557;53.572;10.170;2024-03-17T04:31:35;4.82;;;1.20;;
50605;SDS011;36557;53.572;10.170;2024-03-17T04:34:03;7.45;;;1.58;;
50605;SDS011;36557;53.572;10.170;2024-03-17T04:36:29;4.38;;;1.17;;
50605;SDS011;36557;53.572;10.170;2024-03-17T04:38:55;3.30;;;0.90;;
50605;SDS011;36557;53.572;10.170;2024-03-17T04:41:21;5.38;;;1.00;;
50605;SDS011;36557;53.572;10.170;2024-03-17T04:43:47;4.80;;;1.15;;
50605;SDS011;36557;53.572;10.170;2024-03-17T04:46:13;6.32;;;1.27;;
50605;SDS011;36557;53.572;10.170;2024-03-17T04:48:40;5.88;;;1.35;;
50605;SDS011;36557;53.572;10.170;2024-03-17T04:51:06;9.38;;;1.35;;
50605;SDS011;36557;53.572;10.170;2024-03-17T04:53:32;43.20;;;40.03;;
50605;SDS011;36557;53.572;10.170;2024-03-17T04:55:59;6.15;;;2.05;;
50605;SDS011;36557;53.572;10.170;2024-03-17T04:58:26;4.85;;;0.85;;
50605;SDS011;36557;53.572;10.170;2024-03-17T05:00:52;9.25;;;1.83;;
50605;SDS011;36557;53.572;10.170;2024-03-17T05:03:18;4.03;;;1.02;;
50605;SDS011;36557;53.572;10.170;2024-03-17T05:05:44;5.53;;;1.27;;
50605;SDS011;36557;53.572;10.170;2024-03-17T05:08:10;5.22;;;0.90;;
50605;SDS011;36557;53.572;10.170;2024-03-17T05:10:36;6.45;;;1.17;;
50605;SDS011;36557;53.572;10.170;2024-03-17T05:13:02;5.55;;;1.13;;
50605;SDS011;36557;53.572;10.170;2024-03-17T05:15:28;6.07;;;1.17;;
50605;SDS011;36557;53.572;10.170;2024-03-17T05:17:54;3.42;;;0.90;;
50605;SDS011;36557;53.572;10.170;2024-03-17T05:20:20;16.35;;;1.25;;
50605;SDS011;36557;53.572;10.170;2024-03-17T05:22:46;5.68;;;1.25;;
50605;SDS011;36557;53.572;10.170;2024-03-17T05:25:14;4.10;;;0.93;;
50605;SDS011;36557;53.572;10.170;2024-03-17T05:27:40;8.13;;;1.33;;
50605;SDS011;36557;53.572;10.170;2024-03-17T05:30:06;6.22;;;1.10;;
50605;SDS011;36557;53.572;10.170;2024-03-17T05:32:33;5.45;;;1.30;;
50605;SDS011;36557;53.572;10.170;2024-03-17T05:35:00;5.40;;;1.40;;
50605;SDS011;36557;53.572;10.170;2024-03-17T05:37:26;6.97;;;1.63;;
50605;SDS011;36557;53.572;10.170;2024-03-17T05:39:52;6.00;;;1.38;;
50605;SDS011;36557;53.572;10.170;2024-03-17T05:42:19;14.48;;;2.05;;
50605;SDS011;36557;53.572;10.170;2024-03-17T05:44:45;6.18;;;1.20;;
50605;SDS011;36557;53.572;10.170;2024-03-17T05:47:16;8.02;;;1.20;;
50605;SDS011;36557;53.572;10.170;2024-03-17T05:49:42;5.95;;;0.98;;
50605;SDS011;36557;53.572;10.170;2024-03-17T05:52:08;6.20;;;1.60;;
50605;SDS011;36557;53.572;10.170;2024-03-17T05:54:35;12.02;;;1.23;;
50605;SDS011;36557;53.572;10.170;2024-03-17T05:57:02;4.90;;;1.50;;
50605;SDS011;36557;53.572;10.170;2024-03-17T05:59:29;6.90;;;2.00;;
50605;SDS011;36557;53.572;10.170;2024-03-17T06:01:56;5.32;;;1.30;;
50605;SDS011;36557;53.572;10.170;2024-03-17T06:04:22;6.18;;;1.00;;
50605;SDS011;36557;53.572;10.170;2024-03-17T06:06:49;4.38;;;1.75;;
50605;SDS011;36557;53.572;10.170;2024-03-17T06:09:15;2.40;;;0.80;;
50605;SDS011;36557;53.572;10.170;2024-03-17T06:11:45;3.90;;;1.88;;
50605;SDS011;36557;53.572;10.170;2024-03-17T06:14:11;4.43;;;1.23;;
50605;SDS011;36557;53.572;10.170;2024-03-17T06:16:38;8.25;;;1.20;;
50605;SDS011;36557;53.572;10.170;2024-03-17T06:19:04;7.57;;;1.33;;
50605;SDS011;36557;53.572;10.170;2024-03-17T06:21:31;5.28;;;1.58;;
50605;SDS011;36557;53.572;10.170;2024-03-17T06:23:58;7.90;;;1.38;;
50605;SDS011;36557;53.572;10.170;2024-03-17T06:26:24;4.85;;;1.38;;
50605;SDS011;36557;53.572;10.170;2024-03-17T06:28:51;5.82;;;2.70;;
50605;SDS011;36557;53.572;10.170;2024-03-17T06:31:17;5.55;;;1.75;;
50605;SDS011;36557;53.572;10.170;2024-03-17T06:33:43;9.73;;;1.63;;
50605;SDS011;36557;53.572;10.170;2024-03-17T06:36:09;4.78;;;1.33;;
50605;SDS011;36557;53.572;10.170;2024-03-17T06:38:36;9.45;;;1.20;;
50605;SDS011;36557;53.572;10.170;2024-03-17T06:41:02;9.73;;;1.70;;
50605;SDS011;36557;53.572;10.170;2024-03-17T06:43:28;10.57;;;3.35;;
50605;SDS011;36557;53.572;10.170;2024-03-17T06:45:58;5.85;;;1.30;;
50605;SDS011;36557;53.572;10.170;2024-03-17T06:48:25;6.93;;;1.80;;
50605;SDS011;36557;53.572;10.170;2024-03-17T06:50:51;6.20;;;1.63;;
50605;SDS011;36557;53.572;10.170;2024-03-17T06:53:19;5.82;;;1.75;;
50605;SDS011;36557;53.572;10.170;2024-03-17T06:55:58;5.43;;;2.20;;
50605;SDS011;36557;53.572;10.170;2024-03-17T06:58:24;15.07;;;2.38;;
50605;SDS011;36557;53.572;10.170;2024-03-17T07:00:55;4.43;;;1.52;;
50605;SDS011;36557;53.572;10.170;2024-03-17T07:03:25;9.75;;;2.38;;
50605;SDS011;36557;53.572;10.170;2024-03-17T07:05:54;17.85;;;3.53;;
50605;SDS011;36557;53.572;10.170;2024-03-17T07:08:21;24.30;;;22.73;;
50605;SDS011;36557;53.572;10.170;2024-03-17T07:13:25;212.70;;;193.93;;
50605;SDS011;36557;53.572;10.170;2024-03-17T07:15:51;6.47;;;1.90;;
50605;SDS011;36557;53.572;10.170;2024-03-17T07:18:17;4.15;;;1.42;;
50605;SDS011;36557;53.572;10.170;2024-03-17T07:20:43;11.13;;;2.50;;
50605;SDS011;36557;53.572;10.170;2024-03-17T07:23:12;7.35;;;1.85;;
50605;SDS011;36557;53.572;10.170;2024-03-17T07:25:38;7.22;;;1.80;;
50605;SDS011;36557;53.572;10.170;2024-03-17T07:28:04;9.45;;;1.95;;
50605;SDS011;36557;53.572;10.170;2024-03-17T07:30:30;9.73;;;2.33;;
50605;SDS011;36557;53.572;10.170;2024-03-17T07:32:57;7.00;;;1.58;;
50605;SDS011;36557;53.572;10.170;2024-03-17T07:35:23;12.70;;;1.65;;
50605;SDS011;36557;53.572;10.170;2024-03-17T07:37:49;5.43;;;1.30;;
50605;SDS011;36557;53.572;10.170;2024-03-17T07:40:15;8.32;;;1.80;;
50605;SDS011;36557;53.572;10.170;2024-03-17T07:42:41;8.38;;;1.35;;
50605;SDS011;36557;53.572;10.170;2024-03-17T07:45:07;9.70;;;1.40;;
50605;SDS011;36557;53.572;10.170;2024-03-17T07:47:34;10.30;;;3.08;;
50605;SDS011;36557;53.572;10.170;2024-03-17T07:50:03;252.77;;;237.35;;
50605;SDS011;36557;53.572;10.170;2024-03-17T07:52:30;5.45;;;1.40;;
50605;SDS011;36557;53.572;10.170;2024-03-17T07:54:56;14.35;;;2.15;;
50605;SDS011;36557;53.572;10.170;2024-03-17T07:57:22;182.07;;;168.98;;
50605;SDS011;36557;53.572;10.170;2024-03-17T07:59:52;272.92;;;245.55;;
50605;SDS011;36557;53.572;10.170;2024-03-17T08:02:18;403.10;;;360.10;;
50605;SDS011;36557;53.572;10.170;2024-03-17T08:04:44;457.05;;;363.88;;
50605;SDS011;36557;53.572;10.170;2024-03-17T08:07:10;445.60;;;363.65;;
50605;SDS011;36557;53.572;10.170;2024-03-17T08:09:36;241.35;;;227.18;;
50605;SDS011;36557;53.572;10.170;2024-03-17T08:12:02;0.85;;;0.47;;
50605;SDS011;36557;53.572;10.170;2024-03-17T08:14:29;4.90;;;1.30;;
50605;SDS011;36557;53.572;10.170;2024-03-17T08:16:55;9.27;;;1.00;;
50605;SDS011;36557;53.572;10.170;2024-03-17T08:19:21;8.32;;;1.27;;
50605;SDS011;36557;53.572;10.170;2024-03-17T08:21:48;5.60;;;1.00;;
50605;SDS011;36557;53.572;10.170;2024-03-17T08:24:14;6.28;;;1.10;;
50605;SDS011;36557;53.572;10.170;2024-03-17T08:26:40;5.35;;;2.53;;
50605;SDS011;36557;53.572;10.170;2024-03-17T08:29:06;2.28;;;0.50;;
50605;SDS011;36557;53.572;10.170;2024-03-17T08:31:32;7.68;;;1.30;;
50605;SDS011;36557;53.572;10.170;2024-03-17T08:33:58;4.63;;;0.80;;
50605;SDS011;36557;53.572;10.170;2024-03-17T08:36:24;6.57;;;1.30;;
50605;SDS011;36557;53.572;10.170;2024-03-17T08:38:51;6.32;;;1.30;;
50605;SDS011;36557;53.572;10.170;2024-03-17T08:41:18;6.85;;;0.82;;
50605;SDS011;36557;53.572;10.170;2024-03-17T08:43:44;8.68;;;0.93;;
50605;SDS011;36557;53.572;10.170;2024-03-17T08:46:10;6.07;;;0.88;;
50605;SDS011;36557;53.572;10.170;2024-03-17T08:48:38;5.88;;;1.50;;
50605;SDS011;36557;53.572;10.170;2024-03-17T08:51:05;6.28;;;1.05;;
50605;SDS011;36557;53.572;10.170;2024-03-17T08:53:32;3.20;;;0.60;;
50605;SDS011;36557;53.572;10.170;2024-03-17T08:55:58;5.10;;;1.02;;
50605;SDS011;36557;53.572;10.170;2024-03-17T08:58:25;5.22;;;1.00;;
50605;SDS011;36557;53.572;10.170;2024-03-17T09:00:51;7.85;;;1.10;;
50605;SDS011;36557;53.572;10.170;2024-03-17T09:03:17;2.60;;;0.57;;
50605;SDS011;36557;53.572;10.170;2024-03-17T09:05:47;6.20;;;1.17;;
50605;SDS011;36557;53.572;10.170;2024-03-17T09:08:23;11.50;;;1.45;;
50605;SDS011;36557;53.572;10.170;2024-03-17T09:10:50;8.90;;;1.17;;
50605;SDS011;36557;53.572;10.170;2024-03-17T09:13:18;4.30;;;0.95;;
50605;SDS011;36557;53.572;10.170;2024-03-17T09:15:54;9.50;;;0.90;;
50605;SDS011;36557;53.572;10.170;2024-03-17T09:18:21;6.07;;;1.25;;
50605;SDS011;36557;53.572;10.170;2024-03-17T09:23:29;9.75;;;0.93;;
50605;SDS011;36557;53.572;10.170;2024-03-17T09:26:05;7.15;;;1.02;;
50605;SDS011;36557;53.572;10.170;2024-03-17T09:28:37;5.95;;;1.10;;
50605;SDS011;36557;53.572;10.170;2024-03-17T09:31:03;7.25;;;0.98;;
50605;SDS011;36557;53.572;10.170;2024-03-17T09:33:32;7.10;;;1.60;;
50605;SDS011;36557;53.572;10.170;2024-03-17T09:35:59;10.00;;;3.05;;
50605;SDS011;36557;53.572;10.170;2024-03-17T09:38:26;12.18;;;4.57;;
50605;SDS011;36557;53.572;10.170;2024-03-17T09:40:52;4.55;;;1.73;;
50605;SDS011;36557;53.572;10.170;2024-03-17T09:43:20;7.60;;;1.27;;
50605;SDS011;36557;53.572;10.170;2024-03-17T09:45:49;7.07;;;1.42;;
50605;SDS011;36557;53.572;10.170;2024-03-17T09:48:19;8.73;;;1.58;;
50605;SDS011;36557;53.572;10.170;2024-03-17T09:50:49;4.68;;;1.10;;
50605;SDS011;36557;53.572;10.170;2024-03-17T09:53:17;7.03;;;1.60;;
50605;SDS011;36557;53.572;10.170;2024-03-17T09:55:43;6.60;;;1.30;;
50605;SDS011;36557;53.572;10.170;2024-03-17T09:58:15;5.63;;;1.75;;
50605;SDS011;36557;53.572;10.170;2024-03-17T10:00:45;4.82;;;1.10;;
50605;SDS011;36557;53.572;10.170;2024-03-17T10:03:11;7.75;;;2.25;;
50605;SDS011;36557;53.572;10.170;2024-03-17T10:05:38;8.70;;;1.20;;
50605;SDS011;36557;53.572;10.170;2024-03-17T10:08:04;6.53;;;1.27;;
50605;SDS011;36557;53.572;10.170;2024-03-17T10:10:30;4.90;;;1.38;;
50605;SDS011;36557;53.572;10.170;2024-03-17T10:12:56;6.43;;;1.13;;
50605;SDS011;36557;53.572;10.170;2024-03-17T10:15:22;7.82;;;1.50;;
50605;SDS011;36557;53.572;10.170;2024-03-17T10:17:48;11.48;;;1.50;;
50605;SDS011;36557;53.572;10.170;2024-03-17T10:20:18;9.93;;;1.23;;
50605;SDS011;36557;53.572;10.170;2024-03-17T10:23:01;7.75;;;1.60;;
50605;SDS011;36557;53.572;10.170;2024-03-17T10:25:28;8.55;;;1.33;;
50605;SDS011;36557;53.572;10.170;2024-03-17T10:27:55;5.35;;;1.05;;
50605;SDS011;36557;53.572;10.170;2024-03-17T10:30:22;7.43;;;1.42;;
50605;SDS011;36557;53.572;10.170;2024-03-17T10:32:53;8.82;;;1.05;;
50605;SDS011;36557;53.572;10.170;2024-03-17T10:35:26;7.72;;;1.40;;
50605;SDS011;36557;53.572;10.170;2024-03-17T10:37:56;6.43;;;1.52;;
50605;SDS011;36557;53.572;10.170;2024-03-17T10:40:23;3.55;;;0.80;;
50605;SDS011;36557;53.572;10.170;2024-03-17T10:42:49;6.40;;;0.93;;
50605;SDS011;36557;53.572;10.170;2024-03-17T10:45:16;5.93;;;1.05;;
50605;SDS011;36557;53.572;10.170;2024-03-17T10:47:51;6.97;;;1.33;;
50605;SDS011;36557;53.572;10.170;2024-03-17T10:50:22;5.28;;;1.25;;
50605;SDS011;36557;53.572;10.170;2024-03-17T10:52:52;5.30;;;1.02;;
50605;SDS011;36557;53.572;10.170;2024-03-17T10:55:20;4.72;;;0.80;;
50605;SDS011;36557;53.572;10.170;2024-03-17T10:57:47;5.63;;;0.70;;
50605;SDS011;36557;53.572;10.170;2024-03-17T11:00:14;3.80;;;0.82;;
50605;SDS011;36557;53.572;10.170;2024-03-17T11:02:43;5.03;;;0.95;;
50605;SDS011;36557;53.572;10.170;2024-03-17T11:07:39;3.25;;;1.20;;
50605;SDS011;36557;53.572;10.170;2024-03-17T11:10:10;3.67;;;1.00;;
50605;SDS011;36557;53.572;10.170;2024-03-17T11:12:42;6.18;;;1.10;;
50605;SDS011;36557;53.572;10.170;2024-03-17T11:17:54;5.97;;;1.42;;
50605;SDS011;36557;53.572;10.170;2024-03-17T11:20:23;5.30;;;1.10;;
50605;SDS011;36557;53.572;10.170;2024-03-17T11:23:08;5.53;;;1.15;;
50605;SDS011;36557;53.572;10.170;2024-03-17T11:28:01;4.85;;;0.77;;
50605;SDS011;36557;53.572;10.170;2024-03-17T11:36:29;5.03;;;0.98;;
50605;SDS011;36557;53.572;10.170;2024-03-17T11:38:55;5.97;;;1.15;;
50605;SDS011;36557;53.572;10.170;2024-03-17T11:41:37;7.13;;;1.65;;
50605;SDS011;36557;53.572;10.170;2024-03-17T11:46:43;6.30;;;1.20;;
50605;SDS011;36557;53.572;10.170;2024-03-17T11:49:20;6.18;;;1.20;;
50605;SDS011;36557;53.572;10.170;2024-03-17T11:51:46;5.43;;;1.20;;
50605;SDS011;36557;53.572;10.170;2024-03-17T11:54:16;6.18;;;1.20;;
50605;SDS011;36557;53.572;10.170;2024-03-17T11:56:44;6.78;;;1.38;;
50605;SDS011;36557;53.572;10.170;2024-03-17T11:59:10;6.78;;;1.60;;
50605;SDS011;36557;53.572;10.170;2024-03-17T12:01:37;4.97;;;1.02;;
50605;SDS011;36557;53.572;10.170;2024-03-17T12:04:07;3.78;;;1.05;;
50605;SDS011;36557;53.572;10.170;2024-03-17T12:06:33;4.65;;;0.90;;
50605;SDS011;36557;53.572;10.170;2024-03-17T12:09:09;4.65;;;1.33;;
50605;SDS011;36557;53.572;10.170;2024-03-17T12:11:36;4.07;;;0.95;;
50605;SDS011;36557;53.572;10.170;2024-03-17T12:14:20;3.72;;;0.70;;
50605;SDS011;36557;53.572;10.170;2024-03-17T12:16:47;8.00;;;1.00;;
50605;SDS011;36557;53.572;10.170;2024-03-17T12:19:14;3.92;;;0.90;;
50605;SDS011;36557;53.572;10.170;2024-03-17T12:21:43;4.38;;;0.77;;
50605;SDS011;36557;53.572;10.170;2024-03-17T12:24:13;5.97;;;0.77;;
50605;SDS011;36557;53.572;10.170;2024-03-17T12:26:40;6.30;;;1.35;;
50605;SDS011;36557;53.572;10.170;2024-03-17T12:29:20;6.88;;;1.40;;
50605;SDS011;36557;53.572;10.170;2024-03-17T12:31:47;3.92;;;1.17;;
50605;SDS011;36557;53.572;10.170;2024-03-17T12:34:13;7.50;;;1.20;;
50605;SDS011;36557;53.572;10.170;2024-03-17T12:36:39;7.47;;;0.95;;
50605;SDS011;36557;53.572;10.170;2024-03-17T12:39:09;5.28;;;1.20;;
50605;SDS011;36557;53.572;10.170;2024-03-17T12:41:36;4.47;;;1.00;;
50605;SDS011;36557;53.572;10.170;2024-03-17T12:44:02;6.75;;;0.93;;
50605;SDS011;36557;53.572;10.170;2024-03-17T12:46:30;5.80;;;0.90;;
50605;SDS011;36557;53.572;10.170;2024-03-17T12:49:00;5.68;;;0.80;;
50605;SDS011;36557;53.572;10.170;2024-03-17T12:51:26;3.25;;;0.98;;
50605;SDS011;36557;53.572;10.170;2024-03-17T12:54:11;5.53;;;0.98;;
50605;SDS011;36557;53.572;10.170;2024-03-17T14:05:30;3.63;;;0.60;;
50605;SDS011;36557;53.572;10.170;2024-03-17T14:07:59;2.83;;;0.88;;
50605;SDS011;36557;53.572;10.170;2024-03-17T14:10:32;5.70;;;0.90;;
50605;SDS011;36557;53.572;10.170;2024-03-17T14:12:58;4.25;;;0.77;;
50605;SDS011;36557;53.572;10.170;2024-03-17T14:15:24;2.33;;;0.80;;
50605;SDS011;36557;53.572;10.170;2024-03-17T14:17:50;4.03;;;1.05;;
50605;SDS011;36557;53.572;10.170;2024-03-17T14:20:17;2.22;;;1.20;;
50605;SDS011;36557;53.572;10.170;2024-03-17T14:22:43;3.08;;;1.00;;
50605;SDS011;36557;53.572;10.170;2024-03-17T14:25:14;1.40;;;0.60;;
50605;SDS011;36557;53.572;10.170;2024-03-17T14:27:40;10.45;;;5.90;;
50605;SDS011;36557;53.572;10.170;2024-03-17T14:30:06;6.60;;;3.33;;
50605;SDS011;36557;53.572;10.170;2024-03-17T14:32:33;11.40;;;8.15;;
50605;SDS011;36557;53.572;10.170;2024-03-17T14:34:59;21.48;;;19.17;;
50605;SDS011;36557;53.572;10.170;2024-03-17T14:37:26;3.95;;;1.92;;
50605;SDS011;36557;53.572;10.170;2024-03-17T14:39:52;6.45;;;5.45;;
50605;SDS011;36557;53.572;10.170;2024-03-17T14:42:19;12.30;;;9.13;;
50605;SDS011;36557;53.572;10.170;2024-03-17T14:44:45;7.40;;;1.05;;
50605;SDS011;36557;53.572;10.170;2024-03-17T14:47:14;13.43;;;12.15;;
50605;SDS011;36557;53.572;10.170;2024-03-17T14:49:40;25.45;;;22.98;;
50605;SDS011;36557;53.572;10.170;2024-03-17T14:52:07;19.65;;;17.60;;
50605;SDS011;36557;53.572;10.170;2024-03-17T14:54:34;19.35;;;17.73;;
50605;SDS011;36557;53.572;10.170;2024-03-17T14:57:00;29.13;;;26.30;;
50605;SDS011;36557;53.572;10.170;2024-03-17T14:59:27;53.70;;;48.70;;
50605;SDS011;36557;53.572;10.170;2024-03-17T15:01:53;85.07;;;77.50;;
50605;SDS011;36557;53.572;10.170;2024-03-17T15:04:19;74.63;;;68.03;;
50605;SDS011;36557;53.572;10.170;2024-03-17T15:06:45;174.68;;;160.90;;
50605;SDS011;36557;53.572;10.170;2024-03-17T15:09:11;101.03;;;92.43;;
50605;SDS011;36557;53.572;10.170;2024-03-17T15:11:38;67.93;;;61.67;;
50605;SDS011;36557;53.572;10.170;2024-03-17T15:14:04;60.03;;;54.70;;
50605;SDS011;36557;53.572;10.170;2024-03-17T15:16:35;55.03;;;50.00;;
50605;SDS011;36557;53.572;10.170;2024-03-17T15:19:02;101.22;;;92.85;;
50605;SDS011;36557;53.572;10.170;2024-03-17T15:21:28;60.03;;;54.97;;
50605;SDS011;36557;53.572;10.170;2024-03-17T15:23:54;19.90;;;18.23;;
50605;SDS011;36557;53.572;10.170;2024-03-17T15:26:22;60.88;;;55.47;;
50605;SDS011;36557;53.572;10.170;2024-03-17T15:28:48;84.80;;;77.40;;
50605;SDS011;36557;53.572;10.170;2024-03-17T15:31:14;213.05;;;197.02;;
50605;SDS011;36557;53.572;10.170;2024-03-17T15:33:40;402.70;;;377.88;;
50605;SDS011;36557;53.572;10.170;2024-03-17T15:36:07;349.92;;;327.65;;
50605;SDS011;36557;53.572;10.170;2024-03-17T15:38:34;410.35;;;386.02;;
50605;SDS011;36557;53.572;10.170;2024-03-17T15:41:08;449.42;;;422.88;;
50605;SDS011;36557;53.572;10.170;2024-03-17T15:43:37;472.58;;;444.55;;
50605;SDS011;36557;53.572;10.170;2024-03-17T15:46:14;578.78;;;545.72;;
50605;SDS011;36557;53.572;10.170;2024-03-17T15:48:43;631.92;;;594.90;;
50605;SDS011;36557;53.572;10.170;2024-03-17T15:51:10;504.92;;;469.73;;
50605;SDS011;36557;53.572;10.170;2024-03-17T15:53:36;680.22;;;631.85;;
50605;SDS011;36557;53.572;10.170;2024-03-17T15:56:03;676.28;;;625.13;;
50605;SDS011;36557;53.572;10.170;2024-03-17T15:58:31;635.25;;;595.22;;
50605;SDS011;36557;53.572;10.170;2024-03-17T16:00:57;485.70;;;449.33;;
50605;SDS011;36557;53.572;10.170;2024-03-17T16:03:28;652.40;;;607.42;;
50605;SDS011;36557;53.572;10.170;2024-03-17T16:05:54;673.75;;;618.08;;
50605;SDS011;36557;53.572;10.170;2024-03-17T16:08:23;527.42;;;473.20;;
50605;SDS011;36557;53.572;10.170;2024-03-17T16:10:51;628.72;;;521.72;;
50605;SDS011;36557;53.572;10.170;2024-03-17T16:13:18;650.78;;;513.03;;
50605;SDS011;36557;53.572;10.170;2024-03-17T16:15:46;668.47;;;600.40;;
50605;SDS011;36557;53.572;10.170;2024-03-17T16:18:17;589.83;;;471.58;;
50605;SDS011;36557;53.572;10.170;2024-03-17T16:23:15;644.03;;;578.65;;
50605;SDS011;36557;53.572;10.170;2024-03-17T16:25:44;650.83;;;575.80;;
50605;SDS011;36557;53.572;10.170;2024-03-17T16:28:10;636.80;;;481.40;;
50605;SDS011;36557;53.572;10.170;2024-03-17T16:30:37;726.72;;;596.00;;
50605;SDS011;36557;53.572;10.170;2024-03-17T16:33:03;712.55;;;501.40;;
50605;SDS011;36557;53.572;10.170;2024-03-17T16:35:30;788.90;;;602.30;;
50605;SDS011;36557;53.572;10.170;2024-03-17T16:37:56;700.80;;;487.15;;
50605;SDS011;36557;53.572;10.170;2024-03-17T16:40:22;733.90;;;487.60;;
50605;SDS011;36557;53.572;10.170;2024-03-17T16:42:48;823.15;;;594.03;;
50605;SDS011;36557;53.572;10.170;2024-03-17T16:45:16;829.10;;;583.13;;
50605;SDS011;36557;53.572;10.170;2024-03-17T16:47:42;837.00;;;585.00;;
50605;SDS011;36557;53.572;10.170;2024-03-17T16:50:09;831.10;;;502.77;;
50605;SDS011;36557;53.572;10.170;2024-03-17T16:52:37;828.92;;;515.35;;
50605;SDS011;36557;53.572;10.170;2024-03-17T16:55:06;895.88;;;574.08;;
50605;SDS011;36557;53.572;10.170;2024-03-17T16:57:36;852.47;;;515.97;;
50605;SDS011;36557;53.572;10.170;2024-03-17T17:00:03;881.67;;;577.90;;
50605;SDS011;36557;53.572;10.170;2024-03-17T17:02:39;878.33;;;522.83;;
50605;SDS011;36557;53.572;10.170;2024-03-17T17:05:06;912.75;;;528.47;;
50605;SDS011;36557;53.572;10.170;2024-03-17T17:07:37;893.97;;;516.35;;
50605;SDS011;36557;53.572;10.170;2024-03-17T17:10:03;918.72;;;520.55;;
50605;SDS011;36557;53.572;10.170;2024-03-17T17:12:30;957.80;;;545.88;;
50605;SDS011;36557;53.572;10.170;2024-03-17T17:14:56;946.50;;;559.22;;
50605;SDS011;36557;53.572;10.170;2024-03-17T17:17:22;945.83;;;540.45;;
50605;SDS011;36557;53.572;10.170;2024-03-17T17:19:48;951.50;;;565.13;;
50605;SDS011;36557;53.572;10.170;2024-03-17T17:22:18;966.00;;;589.45;;